sensor_id;sensor_type;location;lat;lon;timestamp;P1;durP1;ratioP1;P2;durP2;ratioP2
31262;SDS011;17892;52.080;9.006;2023-04-24T00:00:00;1.25;;;0.52;;
31262;SDS011;17892;52.080;9.006;2023-04-24T00:02:38;2.00;;;0.60;;
31262;SDS011;17892;52.080;9.006;2023-04-24T00:05:05;1.52;;;0.50;;
31262;SDS011;17892;52.080;9.006;2023-04-24T00:07:31;1.15;;;0.45;;
31262;SDS011;17892;52.080;9.006;2023-04-24T00:09:57;1.02;;;0.40;;
31262;SDS011;17892;52.080;9.006;2023-04-24T00:12:23;0.85;;;0.38;;
31262;SDS011;17892;52.080;9.006;2023-04-24T00:14:50;1.02;;;0.40;;
31262;SDS011;17892;52.080;9.006;2023-04-24T00:17:16;0.45;;;0.38;;
31262;SDS011;17892;52.080;9.006;2023-04-24T00:19:45;1.15;;;0.40;;
31262;SDS011;17892;52.080;9.006;2023-04-24T00:22:11;0.60;;;0.40;;
31262;SDS011;17892;52.080;9.006;2023-04-24T00:24:38;1.25;;;0.30;;
31262;SDS011;17892;52.080;9.006;2023-04-24T00:27:04;0.88;;;0.20;;
31262;SDS011;17892;52.080;9.006;2023-04-24T00:29:30;0.88;;;0.40;;
31262;SDS011;17892;52.080;9.006;2023-04-24T00:31:56;1.33;;;0.40;;
31262;SDS011;17892;52.080;9.006;2023-04-24T00:34:21;0.50;;;0.30;;
31262;SDS011;17892;52.080;9.006;2023-04-24T00:36:47;0.68;;;0.30;;
31262;SDS011;17892;52.080;9.006;2023-04-24T00:39:17;1.60;;;0.32;;
31262;SDS011;17892;52.080;9.006;2023-04-24T00:41:44;0.47;;;0.20;;
31262;SDS011;17892;52.080;9.006;2023-04-24T00:44:10;1.02;;;0.30;;
31262;SDS011;17892;52.080;9.006;2023-04-24T00:46:36;0.50;;;0.30;;
31262;SDS011;17892;52.080;9.006;2023-04-24T00:49:02;1.10;;;0.20;;
31262;SDS011;17892;52.080;9.006;2023-04-24T00:51:30;0.55;;;0.20;;
31262;SDS011;17892;52.080;9.006;2023-04-24T00:53:57;0.52;;;0.30;;
31262;SDS011;17892;52.080;9.006;2023-04-24T00:56:24;0.32;;;0.20;;
31262;SDS011;17892;52.080;9.006;2023-04-24T00:58:50;0.55;;;0.20;;
31262;SDS011;17892;52.080;9.006;2023-04-24T01:01:16;0.77;;;0.30;;
31262;SDS011;17892;52.080;9.006;2023-04-24T01:03:46;0.45;;;0.20;;
31262;SDS011;17892;52.080;9.006;2023-04-24T01:06:12;0.50;;;0.30;;
31262;SDS011;17892;52.080;9.006;2023-04-24T01:08:39;0.95;;;0.25;;
31262;SDS011;17892;52.080;9.006;2023-04-24T01:11:06;0.57;;;0.20;;
31262;SDS011;17892;52.080;9.006;2023-04-24T01:13:32;0.50;;;0.20;;
31262;SDS011;17892;52.080;9.006;2023-04-24T01:15:59;0.55;;;0.30;;
31262;SDS011;17892;52.080;9.006;2023-04-24T01:18:25;0.70;;;0.30;;
31262;SDS011;17892;52.080;9.006;2023-04-24T01:20:53;0.93;;;0.30;;
31262;SDS011;17892;52.080;9.006;2023-04-24T01:23:22;0.55;;;0.15;;
31262;SDS011;17892;52.080;9.006;2023-04-24T01:25:49;1.65;;;0.30;;
31262;SDS011;17892;52.080;9.006;2023-04-24T01:28:16;0.90;;;0.20;;
31262;SDS011;17892;52.080;9.006;2023-04-24T01:30:42;0.80;;;0.20;;
31262;SDS011;17892;52.080;9.006;2023-04-24T01:33:10;0.50;;;0.20;;
31262;SDS011;17892;52.080;9.006;2023-04-24T01:35:37;1.52;;;0.32;;
31262;SDS011;17892;52.080;9.006;2023-04-24T01:38:03;0.45;;;0.20;;
31262;SDS011;17892;52.080;9.006;2023-04-24T01:40:30;0.63;;;0.20;;
31262;SDS011;17892;52.080;9.006;2023-04-24T01:42:57;0.98;;;0.30;;
31262;SDS011;17892;52.080;9.006;2023-04-24T01:45:23;1.65;;;0.35;;
31262;SDS011;17892;52.080;9.006;2023-04-24T01:47:50;1.92;;;0.30;;
31262;SDS011;17892;52.080;9.006;2023-04-24T01:50:16;0.30;;;0.20;;
31262;SDS011;17892;52.080;9.006;2023-04-24T01:52:43;0.50;;;0.20;;
31262;SDS011;17892;52.080;9.006;2023-04-24T01:55:09;0.80;;;0.30;;
31262;SDS011;17892;52.080;9.006;2023-04-24T01:57:35;0.65;;;0.20;;
31262;SDS011;17892;52.080;9.006;2023-04-24T02:00:02;0.50;;;0.30;;
31262;SDS011;17892;52.080;9.006;2023-04-24T02:02:30;1.23;;;0.30;;
31262;SDS011;17892;52.080;9.006;2023-04-24T02:04:56;0.55;;;0.30;;
31262;SDS011;17892;52.080;9.006;2023-04-24T02:07:22;0.60;;;0.30;;
31262;SDS011;17892;52.080;9.006;2023-04-24T02:09:48;0.25;;;0.10;;
31262;SDS011;17892;52.080;9.006;2023-04-24T02:12:14;0.65;;;0.30;;
31262;SDS011;17892;52.080;9.006;2023-04-24T02:14:40;0.50;;;0.20;;
31262;SDS011;17892;52.080;9.006;2023-04-24T02:17:07;0.40;;;0.20;;
31262;SDS011;17892;52.080;9.006;2023-04-24T02:19:33;0.40;;;0.20;;
31262;SDS011;17892;52.080;9.006;2023-04-24T02:21:58;0.30;;;0.10;;
31262;SDS011;17892;52.080;9.006;2023-04-24T02:24:24;0.68;;;0.30;;
31262;SDS011;17892;52.080;9.006;2023-04-24T02:26:50;0.63;;;0.30;;
31262;SDS011;17892;52.080;9.006;2023-04-24T02:29:15;0.63;;;0.25;;
31262;SDS011;17892;52.080;9.006;2023-04-24T02:31:41;0.75;;;0.30;;
31262;SDS011;17892;52.080;9.006;2023-04-24T02:34:07;0.52;;;0.20;;
31262;SDS011;17892;52.080;9.006;2023-04-24T02:36:32;1.20;;;0.40;;
31262;SDS011;17892;52.080;9.006;2023-04-24T02:38:58;1.08;;;0.30;;
31262;SDS011;17892;52.080;9.006;2023-04-24T02:41:24;0.68;;;0.22;;
31262;SDS011;17892;52.080;9.006;2023-04-24T02:43:56;0.95;;;0.38;;
31262;SDS011;17892;52.080;9.006;2023-04-24T02:46:21;0.30;;;0.13;;
31262;SDS011;17892;52.080;9.006;2023-04-24T02:48:47;1.20;;;0.30;;
31262;SDS011;17892;52.080;9.006;2023-04-24T02:51:13;0.43;;;0.28;;
31262;SDS011;17892;52.080;9.006;2023-04-24T02:53:38;0.52;;;0.20;;
31262;SDS011;17892;52.080;9.006;2023-04-24T02:56:04;0.70;;;0.22;;
31262;SDS011;17892;52.080;9.006;2023-04-24T02:58:30;1.00;;;0.30;;
31262;SDS011;17892;52.080;9.006;2023-04-24T03:00:56;0.52;;;0.30;;
31262;SDS011;17892;52.080;9.006;2023-04-24T03:03:22;0.80;;;0.35;;
31262;SDS011;17892;52.080;9.006;2023-04-24T03:05:47;1.02;;;0.30;;
31262;SDS011;17892;52.080;9.006;2023-04-24T03:08:13;0.68;;;0.20;;
31262;SDS011;17892;52.080;9.006;2023-04-24T03:10:39;1.10;;;0.40;;
31262;SDS011;17892;52.080;9.006;2023-04-24T03:13:05;0.40;;;0.25;;
31262;SDS011;17892;52.080;9.006;2023-04-24T03:15:31;1.00;;;0.50;;
31262;SDS011;17892;52.080;9.006;2023-04-24T03:17:57;0.88;;;0.40;;
31262;SDS011;17892;52.080;9.006;2023-04-24T03:20:22;0.65;;;0.30;;
31262;SDS011;17892;52.080;9.006;2023-04-24T03:22:48;0.47;;;0.20;;
31262;SDS011;17892;52.080;9.006;2023-04-24T03:25:14;0.45;;;0.20;;
31262;SDS011;17892;52.080;9.006;2023-04-24T03:27:40;1.40;;;0.30;;
31262;SDS011;17892;52.080;9.006;2023-04-24T03:30:06;1.15;;;0.35;;
31262;SDS011;17892;52.080;9.006;2023-04-24T03:32:33;0.60;;;0.30;;
31262;SDS011;17892;52.080;9.006;2023-04-24T03:34:58;0.38;;;0.20;;
31262;SDS011;17892;52.080;9.006;2023-04-24T03:37:24;0.90;;;0.30;;
31262;SDS011;17892;52.080;9.006;2023-04-24T03:39:51;0.75;;;0.30;;
31262;SDS011;17892;52.080;9.006;2023-04-24T03:42:17;0.68;;;0.30;;
31262;SDS011;17892;52.080;9.006;2023-04-24T03:44:43;0.63;;;0.22;;
31262;SDS011;17892;52.080;9.006;2023-04-24T03:47:09;0.38;;;0.20;;
31262;SDS011;17892;52.080;9.006;2023-04-24T03:49:34;0.45;;;0.10;;
31262;SDS011;17892;52.080;9.006;2023-04-24T03:52:00;0.70;;;0.30;;
31262;SDS011;17892;52.080;9.006;2023-04-24T03:54:26;0.65;;;0.22;;
31262;SDS011;17892;52.080;9.006;2023-04-24T03:56:51;1.27;;;0.30;;
31262;SDS011;17892;52.080;9.006;2023-04-24T03:59:17;0.95;;;0.30;;
31262;SDS011;17892;52.080;9.006;2023-04-24T04:01:43;0.60;;;0.20;;
31262;SDS011;17892;52.080;9.006;2023-04-24T04:04:10;0.60;;;0.20;;
31262;SDS011;17892;52.080;9.006;2023-04-24T04:06:36;0.80;;;0.30;;
31262;SDS011;17892;52.080;9.006;2023-04-24T04:09:02;0.70;;;0.40;;
31262;SDS011;17892;52.080;9.006;2023-04-24T04:11:28;0.75;;;0.32;;
31262;SDS011;17892;52.080;9.006;2023-04-24T04:13:54;1.05;;;0.20;;
31262;SDS011;17892;52.080;9.006;2023-04-24T04:16:20;0.63;;;0.30;;
31262;SDS011;17892;52.080;9.006;2023-04-24T04:18:46;0.93;;;0.43;;
31262;SDS011;17892;52.080;9.006;2023-04-24T04:21:12;0.50;;;0.30;;
31262;SDS011;17892;52.080;9.006;2023-04-24T04:23:37;1.27;;;0.30;;
31262;SDS011;17892;52.080;9.006;2023-04-24T04:26:04;1.60;;;0.47;;
31262;SDS011;17892;52.080;9.006;2023-04-24T04:28:30;1.27;;;0.50;;
31262;SDS011;17892;52.080;9.006;2023-04-24T04:30:57;1.88;;;0.50;;
31262;SDS011;17892;52.080;9.006;2023-04-24T04:33:25;2.25;;;0.60;;
31262;SDS011;17892;52.080;9.006;2023-04-24T04:35:51;0.80;;;0.40;;
31262;SDS011;17892;52.080;9.006;2023-04-24T04:38:20;0.85;;;0.40;;
31262;SDS011;17892;52.080;9.006;2023-04-24T04:40:45;1.08;;;0.50;;
31262;SDS011;17892;52.080;9.006;2023-04-24T04:43:11;1.92;;;0.90;;
31262;SDS011;17892;52.080;9.006;2023-04-24T04:45:40;1.80;;;0.82;;
31262;SDS011;17892;52.080;9.006;2023-04-24T04:48:07;2.53;;;0.73;;
31262;SDS011;17892;52.080;9.006;2023-04-24T04:50:34;1.75;;;0.85;;
31262;SDS011;17892;52.080;9.006;2023-04-24T04:53:00;2.53;;;0.82;;
31262;SDS011;17892;52.080;9.006;2023-04-24T04:55:26;2.67;;;1.10;;
31262;SDS011;17892;52.080;9.006;2023-04-24T04:57:52;2.00;;;1.10;;
31262;SDS011;17892;52.080;9.006;2023-04-24T05:00:17;2.50;;;0.90;;
31262;SDS011;17892;52.080;9.006;2023-04-24T05:02:44;2.45;;;1.20;;
31262;SDS011;17892;52.080;9.006;2023-04-24T05:05:09;1.98;;;1.00;;
31262;SDS011;17892;52.080;9.006;2023-04-24T05:07:35;3.15;;;1.00;;
31262;SDS011;17892;52.080;9.006;2023-04-24T05:10:01;2.70;;;1.05;;
31262;SDS011;17892;52.080;9.006;2023-04-24T05:12:27;2.50;;;1.17;;
31262;SDS011;17892;52.080;9.006;2023-04-24T05:14:53;2.83;;;1.42;;
31262;SDS011;17892;52.080;9.006;2023-04-24T05:17:19;2.53;;;1.20;;
31262;SDS011;17892;52.080;9.006;2023-04-24T05:19:44;2.28;;;1.10;;
31262;SDS011;17892;52.080;9.006;2023-04-24T05:22:11;2.33;;;1.10;;
31262;SDS011;17892;52.080;9.006;2023-04-24T05:24:37;2.88;;;1.40;;
31262;SDS011;17892;52.080;9.006;2023-04-24T05:27:03;2.78;;;1.40;;
31262;SDS011;17892;52.080;9.006;2023-04-24T05:31:58;3.50;;;1.60;;
31262;SDS011;17892;52.080;9.006;2023-04-24T05:34:25;3.13;;;1.65;;
31262;SDS011;17892;52.080;9.006;2023-04-24T05:36:51;4.00;;;2.15;;
31262;SDS011;17892;52.080;9.006;2023-04-24T05:39:17;4.53;;;2.28;;
31262;SDS011;17892;52.080;9.006;2023-04-24T05:41:43;3.63;;;2.22;;
31262;SDS011;17892;52.080;9.006;2023-04-24T05:44:08;4.15;;;2.58;;
31262;SDS011;17892;52.080;9.006;2023-04-24T05:46:34;5.35;;;2.58;;
31262;SDS011;17892;52.080;9.006;2023-04-24T05:49:00;4.88;;;2.55;;
31262;SDS011;17892;52.080;9.006;2023-04-24T05:51:27;4.25;;;2.53;;
31262;SDS011;17892;52.080;9.006;2023-04-24T05:53:53;5.03;;;3.22;;
31262;SDS011;17892;52.080;9.006;2023-04-24T05:56:19;5.18;;;3.05;;
31262;SDS011;17892;52.080;9.006;2023-04-24T05:58:45;5.65;;;2.85;;
31262;SDS011;17892;52.080;9.006;2023-04-24T06:01:11;4.63;;;2.97;;
31262;SDS011;17892;52.080;9.006;2023-04-24T06:03:39;5.30;;;3.13;;
31262;SDS011;17892;52.080;9.006;2023-04-24T06:06:06;5.15;;;2.78;;
31262;SDS011;17892;52.080;9.006;2023-04-24T06:08:33;4.43;;;2.63;;
31262;SDS011;17892;52.080;9.006;2023-04-24T06:11:00;5.15;;;2.90;;
31262;SDS011;17892;52.080;9.006;2023-04-24T06:13:25;4.50;;;2.80;;
31262;SDS011;17892;52.080;9.006;2023-04-24T06:15:51;5.70;;;3.20;;
31262;SDS011;17892;52.080;9.006;2023-04-24T06:18:17;5.90;;;3.17;;
31262;SDS011;17892;52.080;9.006;2023-04-24T06:20:43;7.13;;;3.70;;
31262;SDS011;17892;52.080;9.006;2023-04-24T06:23:10;6.85;;;4.32;;
31262;SDS011;17892;52.080;9.006;2023-04-24T06:25:35;5.95;;;3.63;;
31262;SDS011;17892;52.080;9.006;2023-04-24T06:28:02;6.53;;;3.88;;
31262;SDS011;17892;52.080;9.006;2023-04-24T06:30:28;6.13;;;3.95;;
31262;SDS011;17892;52.080;9.006;2023-04-24T06:32:54;6.35;;;3.78;;
31262;SDS011;17892;52.080;9.006;2023-04-24T06:35:19;5.90;;;3.17;;
31262;SDS011;17892;52.080;9.006;2023-04-24T06:37:45;6.38;;;4.15;;
31262;SDS011;17892;52.080;9.006;2023-04-24T06:40:11;6.95;;;4.03;;
31262;SDS011;17892;52.080;9.006;2023-04-24T06:42:37;6.47;;;3.75;;
31262;SDS011;17892;52.080;9.006;2023-04-24T06:45:03;7.78;;;4.75;;
31262;SDS011;17892;52.080;9.006;2023-04-24T06:47:30;6.10;;;3.67;;
31262;SDS011;17892;52.080;9.006;2023-04-24T06:49:57;5.15;;;2.97;;
31262;SDS011;17892;52.080;9.006;2023-04-24T06:52:23;5.90;;;3.38;;
31262;SDS011;17892;52.080;9.006;2023-04-24T06:54:49;6.30;;;4.10;;
31262;SDS011;17892;52.080;9.006;2023-04-24T06:57:15;7.13;;;3.92;;
31262;SDS011;17892;52.080;9.006;2023-04-24T06:59:43;6.38;;;4.20;;
31262;SDS011;17892;52.080;9.006;2023-04-24T07:02:09;6.43;;;3.85;;
31262;SDS011;17892;52.080;9.006;2023-04-24T07:04:35;6.25;;;3.70;;
31262;SDS011;17892;52.080;9.006;2023-04-24T07:07:01;7.10;;;4.20;;
31262;SDS011;17892;52.080;9.006;2023-04-24T07:09:27;7.20;;;4.63;;
31262;SDS011;17892;52.080;9.006;2023-04-24T07:11:53;5.82;;;3.67;;
31262;SDS011;17892;52.080;9.006;2023-04-24T07:14:19;5.50;;;3.50;;
31262;SDS011;17892;52.080;9.006;2023-04-24T07:16:45;5.72;;;3.40;;
31262;SDS011;17892;52.080;9.006;2023-04-24T07:19:12;8.15;;;4.18;;
31262;SDS011;17892;52.080;9.006;2023-04-24T07:21:38;6.57;;;3.45;;
31262;SDS011;17892;52.080;9.006;2023-04-24T07:24:04;6.68;;;3.83;;
31262;SDS011;17892;52.080;9.006;2023-04-24T07:26:30;5.55;;;3.40;;
31262;SDS011;17892;52.080;9.006;2023-04-24T07:28:56;6.15;;;3.47;;
31262;SDS011;17892;52.080;9.006;2023-04-24T07:31:22;5.90;;;3.40;;
31262;SDS011;17892;52.080;9.006;2023-04-24T07:33:48;6.28;;;3.40;;
31262;SDS011;17892;52.080;9.006;2023-04-24T07:36:14;5.78;;;3.47;;
31262;SDS011;17892;52.080;9.006;2023-04-24T07:38:43;5.53;;;3.42;;
31262;SDS011;17892;52.080;9.006;2023-04-24T07:41:13;7.20;;;3.90;;
31262;SDS011;17892;52.080;9.006;2023-04-24T07:43:39;5.20;;;3.05;;
31262;SDS011;17892;52.080;9.006;2023-04-24T07:46:06;5.88;;;3.33;;
31262;SDS011;17892;52.080;9.006;2023-04-24T07:48:33;5.63;;;3.40;;
31262;SDS011;17892;52.080;9.006;2023-04-24T07:50:59;4.90;;;3.35;;
31262;SDS011;17892;52.080;9.006;2023-04-24T07:53:24;5.90;;;4.18;;
31262;SDS011;17892;52.080;9.006;2023-04-24T07:55:50;5.55;;;3.47;;
31262;SDS011;17892;52.080;9.006;2023-04-24T07:58:16;5.05;;;2.92;;
31262;SDS011;17892;52.080;9.006;2023-04-24T08:00:42;5.55;;;3.03;;
31262;SDS011;17892;52.080;9.006;2023-04-24T08:03:07;4.93;;;2.83;;
31262;SDS011;17892;52.080;9.006;2023-04-24T08:05:33;5.28;;;2.75;;
31262;SDS011;17892;52.080;9.006;2023-04-24T08:07:59;5.30;;;2.92;;
31262;SDS011;17892;52.080;9.006;2023-04-24T08:10:24;4.50;;;2.65;;
31262;SDS011;17892;52.080;9.006;2023-04-24T08:12:50;4.30;;;2.58;;
31262;SDS011;17892;52.080;9.006;2023-04-24T08:15:17;5.43;;;3.10;;
31262;SDS011;17892;52.080;9.006;2023-04-24T08:17:43;4.43;;;2.50;;
31262;SDS011;17892;52.080;9.006;2023-04-24T08:20:09;5.10;;;2.63;;
31262;SDS011;17892;52.080;9.006;2023-04-24T08:22:39;5.15;;;2.83;;
31262;SDS011;17892;52.080;9.006;2023-04-24T08:25:08;3.80;;;2.30;;
31262;SDS011;17892;52.080;9.006;2023-04-24T08:27:35;5.80;;;3.10;;
31262;SDS011;17892;52.080;9.006;2023-04-24T08:30:02;4.93;;;3.08;;
31262;SDS011;17892;52.080;9.006;2023-04-24T08:32:29;4.03;;;2.88;;
31262;SDS011;17892;52.080;9.006;2023-04-24T08:34:55;4.57;;;2.90;;
31262;SDS011;17892;52.080;9.006;2023-04-24T08:37:22;4.53;;;2.70;;
31262;SDS011;17892;52.080;9.006;2023-04-24T08:39:49;4.50;;;2.78;;
31262;SDS011;17892;52.080;9.006;2023-04-24T08:42:15;4.10;;;2.63;;
31262;SDS011;17892;52.080;9.006;2023-04-24T08:44:43;4.55;;;2.83;;
31262;SDS011;17892;52.080;9.006;2023-04-24T08:47:10;4.22;;;2.40;;
31262;SDS011;17892;52.080;9.006;2023-04-24T08:49:37;3.72;;;2.20;;
31262;SDS011;17892;52.080;9.006;2023-04-24T08:52:07;5.05;;;2.80;;
31262;SDS011;17892;52.080;9.006;2023-04-24T08:54:36;4.15;;;2.35;;
31262;SDS011;17892;52.080;9.006;2023-04-24T08:57:03;4.95;;;2.70;;
31262;SDS011;17892;52.080;9.006;2023-04-24T08:59:29;4.10;;;2.40;;
31262;SDS011;17892;52.080;9.006;2023-04-24T09:01:56;4.03;;;2.50;;
31262;SDS011;17892;52.080;9.006;2023-04-24T09:04:23;4.45;;;2.40;;
31262;SDS011;17892;52.080;9.006;2023-04-24T09:06:50;3.30;;;1.88;;
31262;SDS011;17892;52.080;9.006;2023-04-24T09:09:20;4.30;;;2.30;;
31262;SDS011;17892;52.080;9.006;2023-04-24T09:11:46;3.15;;;1.80;;
31262;SDS011;17892;52.080;9.006;2023-04-24T09:14:14;3.45;;;1.63;;
31262;SDS011;17892;52.080;9.006;2023-04-24T09:16:40;3.13;;;1.42;;
31262;SDS011;17892;52.080;9.006;2023-04-24T09:19:06;2.70;;;1.40;;
31262;SDS011;17892;52.080;9.006;2023-04-24T09:21:33;2.90;;;1.60;;
31262;SDS011;17892;52.080;9.006;2023-04-24T09:24:01;3.40;;;1.70;;
31262;SDS011;17892;52.080;9.006;2023-04-24T09:26:30;2.60;;;1.40;;
31262;SDS011;17892;52.080;9.006;2023-04-24T09:28:57;2.80;;;1.38;;
31262;SDS011;17892;52.080;9.006;2023-04-24T09:31:24;2.30;;;1.30;;
31262;SDS011;17892;52.080;9.006;2023-04-24T09:33:54;2.60;;;1.20;;
31262;SDS011;17892;52.080;9.006;2023-04-24T09:36:26;3.08;;;1.15;;
31262;SDS011;17892;52.080;9.006;2023-04-24T09:39:00;2.35;;;1.08;;
31262;SDS011;17892;52.080;9.006;2023-04-24T09:41:28;2.20;;;1.30;;
31262;SDS011;17892;52.080;9.006;2023-04-24T09:43:54;3.03;;;1.42;;
31262;SDS011;17892;52.080;9.006;2023-04-24T09:46:20;3.05;;;1.25;;
31262;SDS011;17892;52.080;9.006;2023-04-24T09:48:47;2.67;;;1.25;;
31262;SDS011;17892;52.080;9.006;2023-04-24T09:51:13;2.33;;;1.10;;
31262;SDS011;17892;52.080;9.006;2023-04-24T09:53:44;2.90;;;1.25;;
31262;SDS011;17892;52.080;9.006;2023-04-24T09:56:11;2.33;;;1.10;;
31262;SDS011;17892;52.080;9.006;2023-04-24T09:58:40;2.63;;;1.27;;
31262;SDS011;17892;52.080;9.006;2023-04-24T10:01:05;1.98;;;1.10;;
31262;SDS011;17892;52.080;9.006;2023-04-24T10:03:34;2.45;;;1.15;;
31262;SDS011;17892;52.080;9.006;2023-04-24T10:06:01;3.00;;;1.52;;
31262;SDS011;17892;52.080;9.006;2023-04-24T10:08:34;3.17;;;1.17;;
31262;SDS011;17892;52.080;9.006;2023-04-24T10:11:01;2.65;;;0.93;;
31262;SDS011;17892;52.080;9.006;2023-04-24T10:13:27;3.00;;;1.27;;
31262;SDS011;17892;52.080;9.006;2023-04-24T10:15:54;1.88;;;0.80;;
31262;SDS011;17892;52.080;9.006;2023-04-24T10:18:21;1.77;;;1.00;;
31262;SDS011;17892;52.080;9.006;2023-04-24T10:20:47;2.53;;;1.02;;
31262;SDS011;17892;52.080;9.006;2023-04-24T10:23:13;1.80;;;0.90;;
31262;SDS011;17892;52.080;9.006;2023-04-24T10:25:40;2.30;;;1.10;;
31262;SDS011;17892;52.080;9.006;2023-04-24T10:28:06;2.65;;;0.77;;
31262;SDS011;17892;52.080;9.006;2023-04-24T10:30:33;1.52;;;0.80;;
31262;SDS011;17892;52.080;9.006;2023-04-24T10:33:06;1.88;;;0.73;;
31262;SDS011;17892;52.080;9.006;2023-04-24T10:35:34;2.20;;;0.60;;
31262;SDS011;17892;52.080;9.006;2023-04-24T10:38:05;2.00;;;0.60;;
31262;SDS011;17892;52.080;9.006;2023-04-24T10:40:35;1.30;;;0.50;;
31262;SDS011;17892;52.080;9.006;2023-04-24T10:43:02;1.70;;;0.75;;
31262;SDS011;17892;52.080;9.006;2023-04-24T10:45:36;1.73;;;0.70;;
31262;SDS011;17892;52.080;9.006;2023-04-24T10:50:56;1.10;;;0.50;;
31262;SDS011;17892;52.080;9.006;2023-04-24T10:53:23;1.05;;;0.50;;
31262;SDS011;17892;52.080;9.006;2023-04-24T10:58:36;1.35;;;0.60;;
31262;SDS011;17892;52.080;9.006;2023-04-24T11:01:22;1.35;;;0.60;;
31262;SDS011;17892;52.080;9.006;2023-04-24T11:03:57;0.68;;;0.30;;
31262;SDS011;17892;52.080;9.006;2023-04-24T11:09:10;1.02;;;0.43;;
31262;SDS011;17892;52.080;9.006;2023-04-24T11:11:44;1.35;;;0.40;;
31262;SDS011;17892;52.080;9.006;2023-04-24T11:14:14;2.75;;;0.63;;
31262;SDS011;17892;52.080;9.006;2023-04-24T11:16:53;0.90;;;0.50;;
31262;SDS011;17892;52.080;9.006;2023-04-24T11:19:25;0.77;;;0.40;;
31262;SDS011;17892;52.080;9.006;2023-04-24T11:22:13;0.70;;;0.40;;
31262;SDS011;17892;52.080;9.006;2023-04-24T11:27:15;1.48;;;0.50;;
31262;SDS011;17892;52.080;9.006;2023-04-24T11:29:49;0.93;;;0.45;;
31262;SDS011;17892;52.080;9.006;2023-04-24T11:32:28;0.85;;;0.30;;
31262;SDS011;17892;52.080;9.006;2023-04-24T11:37:29;1.15;;;0.50;;
31262;SDS011;17892;52.080;9.006;2023-04-24T11:40:03;1.38;;;0.50;;
31262;SDS011;17892;52.080;9.006;2023-04-24T11:42:38;1.40;;;0.60;;
31262;SDS011;17892;52.080;9.006;2023-04-24T11:45:07;1.70;;;0.70;;
31262;SDS011;17892;52.080;9.006;2023-04-24T11:47:42;1.55;;;0.60;;
31262;SDS011;17892;52.080;9.006;2023-04-24T11:50:12;1.55;;;0.60;;
31262;SDS011;17892;52.080;9.006;2023-04-24T11:52:44;0.75;;;0.40;;
31262;SDS011;17892;52.080;9.006;2023-04-24T11:57:50;1.67;;;0.50;;
31262;SDS011;17892;52.080;9.006;2023-04-24T12:00:25;1.20;;;0.50;;
31262;SDS011;17892;52.080;9.006;2023-04-24T12:05:35;0.93;;;0.50;;
31262;SDS011;17892;52.080;9.006;2023-04-24T12:08:00;1.35;;;0.57;;
31262;SDS011;17892;52.080;9.006;2023-04-24T12:10:27;0.95;;;0.57;;
31262;SDS011;17892;52.080;9.006;2023-04-24T12:12:56;1.38;;;0.60;;
31262;SDS011;17892;52.080;9.006;2023-04-24T12:15:23;1.17;;;0.60;;
31262;SDS011;17892;52.080;9.006;2023-04-24T12:17:53;1.40;;;0.63;;
31262;SDS011;17892;52.080;9.006;2023-04-24T12:20:23;1.35;;;0.70;;
31262;SDS011;17892;52.080;9.006;2023-04-24T12:22:55;2.08;;;1.00;;
31262;SDS011;17892;52.080;9.006;2023-04-24T12:25:23;1.70;;;0.90;;
31262;SDS011;17892;52.080;9.006;2023-04-24T12:28:11;1.30;;;0.60;;
31262;SDS011;17892;52.080;9.006;2023-04-24T12:30:40;1.38;;;0.60;;
31262;SDS011;17892;52.080;9.006;2023-04-24T12:33:17;2.13;;;0.60;;
31262;SDS011;17892;52.080;9.006;2023-04-24T12:35:45;1.23;;;0.60;;
31262;SDS011;17892;52.080;9.006;2023-04-24T12:38:11;1.73;;;0.70;;
31262;SDS011;17892;52.080;9.006;2023-04-24T12:40:38;1.38;;;0.50;;
31262;SDS011;17892;52.080;9.006;2023-04-24T12:43:15;0.50;;;0.30;;
31262;SDS011;17892;52.080;9.006;2023-04-24T12:45:45;1.15;;;0.50;;
31262;SDS011;17892;52.080;9.006;2023-04-24T12:48:14;0.98;;;0.30;;
31262;SDS011;17892;52.080;9.006;2023-04-24T12:50:40;1.02;;;0.40;;
31262;SDS011;17892;52.080;9.006;2023-04-24T12:53:07;1.40;;;0.50;;
31262;SDS011;17892;52.080;9.006;2023-04-24T12:55:33;1.15;;;0.40;;
31262;SDS011;17892;52.080;9.006;2023-04-24T12:57:59;0.88;;;0.25;;
31262;SDS011;17892;52.080;9.006;2023-04-24T13:00:25;1.80;;;0.50;;
31262;SDS011;17892;52.080;9.006;2023-04-24T13:02:51;1.95;;;0.50;;
31262;SDS011;17892;52.080;9.006;2023-04-24T13:05:16;1.42;;;0.40;;
31262;SDS011;17892;52.080;9.006;2023-04-24T13:07:42;0.82;;;0.32;;
31262;SDS011;17892;52.080;9.006;2023-04-24T13:10:08;0.75;;;0.30;;
31262;SDS011;17892;52.080;9.006;2023-04-24T13:12:34;2.05;;;0.68;;
31262;SDS011;17892;52.080;9.006;2023-04-24T13:15:00;2.17;;;1.13;;
31262;SDS011;17892;52.080;9.006;2023-04-24T13:17:26;2.95;;;0.88;;
31262;SDS011;17892;52.080;9.006;2023-04-24T13:19:53;1.52;;;0.63;;
31262;SDS011;17892;52.080;9.006;2023-04-24T13:22:20;2.22;;;0.90;;
31262;SDS011;17892;52.080;9.006;2023-04-24T13:24:45;1.88;;;0.75;;
31262;SDS011;17892;52.080;9.006;2023-04-24T13:27:14;2.67;;;1.10;;
31262;SDS011;17892;52.080;9.006;2023-04-24T13:29:40;3.45;;;1.38;;
31262;SDS011;17892;52.080;9.006;2023-04-24T13:32:06;3.28;;;1.60;;
31262;SDS011;17892;52.080;9.006;2023-04-24T13:34:34;4.03;;;1.75;;
31262;SDS011;17892;52.080;9.006;2023-04-24T13:37:00;2.67;;;1.15;;
31262;SDS011;17892;52.080;9.006;2023-04-24T13:39:28;2.90;;;1.40;;
31262;SDS011;17892;52.080;9.006;2023-04-24T13:41:54;3.08;;;1.42;;
31262;SDS011;17892;52.080;9.006;2023-04-24T13:44:21;4.75;;;1.58;;
31262;SDS011;17892;52.080;9.006;2023-04-24T13:46:48;3.75;;;1.17;;
31262;SDS011;17892;52.080;9.006;2023-04-24T13:49:19;3.67;;;1.45;;
31262;SDS011;17892;52.080;9.006;2023-04-24T13:51:45;2.88;;;1.30;;
31262;SDS011;17892;52.080;9.006;2023-04-24T13:54:12;3.70;;;1.50;;
31262;SDS011;17892;52.080;9.006;2023-04-24T13:56:38;3.80;;;1.30;;
31262;SDS011;17892;52.080;9.006;2023-04-24T13:59:05;2.28;;;1.08;;
31262;SDS011;17892;52.080;9.006;2023-04-24T14:01:31;2.97;;;1.20;;
31262;SDS011;17892;52.080;9.006;2023-04-24T14:03:57;3.30;;;1.38;;
31262;SDS011;17892;52.080;9.006;2023-04-24T14:06:23;2.78;;;1.17;;
31262;SDS011;17892;52.080;9.006;2023-04-24T14:08:49;3.17;;;1.27;;
31262;SDS011;17892;52.080;9.006;2023-04-24T14:11:15;4.38;;;1.52;;
31262;SDS011;17892;52.080;9.006;2023-04-24T14:13:42;4.35;;;1.55;;
31262;SDS011;17892;52.080;9.006;2023-04-24T14:16:09;3.05;;;1.45;;
31262;SDS011;17892;52.080;9.006;2023-04-24T14:18:35;2.92;;;1.30;;
31262;SDS011;17892;52.080;9.006;2023-04-24T14:21:01;3.90;;;1.40;;
31262;SDS011;17892;52.080;9.006;2023-04-24T14:23:28;3.30;;;1.67;;
31262;SDS011;17892;52.080;9.006;2023-04-24T14:25:53;3.38;;;1.30;;
31262;SDS011;17892;52.080;9.006;2023-04-24T14:28:19;3.42;;;1.25;;
31262;SDS011;17892;52.080;9.006;2023-04-24T14:30:46;3.92;;;1.40;;
31262;SDS011;17892;52.080;9.006;2023-04-24T14:33:12;2.95;;;1.30;;
31262;SDS011;17892;52.080;9.006;2023-04-24T14:35:40;3.05;;;1.55;;
31262;SDS011;17892;52.080;9.006;2023-04-24T14:38:09;4.47;;;1.80;;
31262;SDS011;17892;52.080;9.006;2023-04-24T14:40:36;6.57;;;2.10;;
31262;SDS011;17892;52.080;9.006;2023-04-24T14:43:02;11.15;;;2.67;;
31262;SDS011;17892;52.080;9.006;2023-04-24T14:45:28;4.25;;;2.17;;
31262;SDS011;17892;52.080;9.006;2023-04-24T14:47:54;7.03;;;2.70;;
31262;SDS011;17892;52.080;9.006;2023-04-24T14:50:20;4.80;;;2.90;;
31262;SDS011;17892;52.080;9.006;2023-04-24T14:52:46;4.07;;;2.35;;
31262;SDS011;17892;52.080;9.006;2023-04-24T14:55:12;6.72;;;2.70;;
31262;SDS011;17892;52.080;9.006;2023-04-24T14:57:38;4.88;;;2.10;;
31262;SDS011;17892;52.080;9.006;2023-04-24T15:00:04;6.72;;;3.08;;
31262;SDS011;17892;52.080;9.006;2023-04-24T15:02:34;6.40;;;3.05;;
31262;SDS011;17892;52.080;9.006;2023-04-24T15:05:04;6.13;;;2.40;;
31262;SDS011;17892;52.080;9.006;2023-04-24T15:07:31;7.82;;;3.15;;